Change the Weather History Date:

Sunday, March 31, 2013

  Actual Average (KMBS) Record (KMBS)
Temperature  
Mean Temperature 45 °F 40 °F  
Max Temperature 55 °F 49 °F 73 °F (1999)
Min Temperature 35 °F 31 °F 24 °F (1997)
Degree Days  
Heating Degree Days 20    
Month to date heating degree days  
Since 1 July heating degree days  
Cooling Degree Days 0    
Month to date cooling degree days  
Year to date cooling degree days  
Moisture  
Dew Point 36 °F    
Average Humidity 68    
Maximum Humidity 87    
Minimum Humidity 47    
Precipitation  
Precipitation 0.00 in 0.08 in 1.58 in (2008)
Month to date precipitation 2.06  
Year to date precipitation 5.38  
Snow  
Snow 0.00 in - - ()
Month to date snowfall  
Since 1 July snowfall  
Snow Depth -    
Sea Level Pressure  
Sea Level Pressure 29.69 in    
Wind  
Wind Speed 12 mph (SW)    
Max Wind Speed 26 mph    
Max Gust Speed 34 mph    
Visibility 9 miles    
Events Rain , Snow    
T = Trace of Precipitation, MM = Missing Value Source: NWS Daily Summary

Daily Weather History Graph

Daily Weather History Graph

Search for Another Location

Airport or City:

Trip Planner

Search our weather history database for the weather conditions in past years. The results will help you decide how hot, cold, wet, or windy it might be!

Date:

Astronomy

Mar. 31, 2013 Rise Set
Actual Time 7:18 AM EDT 8:01 PM EDT
Civil Twilight 6:49 AM EDT 8:30 PM EDT
Nautical Twilight 6:15 AM EDT 9:04 PM EDT
Astronomical Twilight 5:40 AM EDT 9:39 PM EDT
Moon 12:12 AM EDT (3/31) 9:57 AM EDT (3/31)
Length of Visible Light 13h 40m
Length of Day
12h 42m
Waning Gibbous, 78% of the Moon is Illuminated
Mar 31
Waning Gibbous
Apr 3
Last Quarter
Apr 10
New
Apr 18
First Quarter
Apr 25
Full

Hourly Weather History & Observations

Time (EDT) Temp. Windchill Dew Point Humidity Pressure Visibility Wind Dir Wind Speed Gust Speed Precip Events Conditions
12:14 AM 46.4 °F 41.9 °F 30.2 °F 53% 29.87 in 10.0 mi South 9.2 mph - N/A   Mostly Cloudy
12:34 AM 44.6 °F 39.7 °F 30.2 °F 57% 29.86 in 10.0 mi South 9.2 mph - N/A   Scattered Clouds
12:54 AM 44.6 °F 39.7 °F 30.2 °F 57% 29.86 in 10.0 mi South 9.2 mph - N/A   Clear
1:14 AM 46.4 °F 41.1 °F 32.0 °F 57% 29.85 in 10.0 mi South 11.5 mph - N/A   Scattered Clouds
1:34 AM 46.4 °F 40.7 °F 32.0 °F 57% 29.84 in 10.0 mi South 12.7 mph - N/A   Mostly Cloudy
1:54 AM 46.4 °F 40.7 °F 32.0 °F 57% 29.83 in 10.0 mi South 12.7 mph - N/A   Overcast
2:14 AM 46.4 °F 40.4 °F 32.0 °F 57% 29.82 in 10.0 mi South 13.8 mph 18.4 mph N/A   Overcast
2:34 AM 46.4 °F 41.1 °F 32.0 °F 57% 29.81 in 10.0 mi SSW 11.5 mph - N/A   Overcast
2:54 AM 46.4 °F 40.7 °F 32.0 °F 57% 29.80 in 10.0 mi SSW 12.7 mph - N/A   Overcast
3:14 AM 46.4 °F 41.5 °F 32.0 °F 57% 29.79 in 10.0 mi SSW 10.4 mph - N/A   Overcast
3:34 AM 46.4 °F 41.1 °F 32.0 °F 57% 29.78 in 10.0 mi SSW 11.5 mph - N/A   Mostly Cloudy
3:55 AM 46.4 °F 41.5 °F 32.0 °F 57% 29.78 in 10.0 mi SSW 10.4 mph - N/A   Overcast
4:15 AM 44.6 °F 39.7 °F 32.0 °F 61% 29.77 in 10.0 mi SW 9.2 mph - N/A   Overcast
4:35 AM 44.6 °F 39.7 °F 32.0 °F 61% 29.76 in 10.0 mi SSW 9.2 mph - N/A   Overcast
4:55 AM 42.8 °F 38.0 °F 33.8 °F 70% 29.76 in 10.0 mi SSW 8.1 mph - N/A   Light Drizzle
5:15 AM 42.8 °F 39.3 °F 35.6 °F 76% 29.73 in 10.0 mi South 5.8 mph - N/A   Overcast
5:35 AM 42.8 °F 39.3 °F 35.6 °F 76% 29.73 in 10.0 mi South 5.8 mph - N/A   Overcast
5:55 AM 42.8 °F 38.0 °F 35.6 °F 76% 29.72 in 10.0 mi South 8.1 mph - N/A   Drizzle
6:15 AM 42.8 °F 37.5 °F 35.6 °F 76% 29.71 in 10.0 mi South 9.2 mph - N/A   Overcast
6:35 AM 42.8 °F 39.3 °F 35.6 °F 76% 29.71 in 10.0 mi South 5.8 mph - N/A Rain Light Rain
6:56 AM 42.8 °F 39.3 °F 35.6 °F 76% 29.70 in 7.0 mi South 5.8 mph - N/A Rain Light Rain
7:11 AM 42.8 °F 38.6 °F 37.4 °F 81% 29.71 in 7.0 mi SW 6.9 mph - N/A Rain Light Rain
7:31 AM 42.8 °F 37.5 °F 37.4 °F 81% 29.70 in 7.0 mi SSW 9.2 mph - N/A Rain Light Rain
7:51 AM 42.8 °F 38.0 °F 37.4 °F 81% 29.70 in 7.0 mi SSW 8.1 mph - N/A   Light Drizzle
8:11 AM 42.8 °F 38.0 °F 37.4 °F 81% 29.69 in 7.0 mi South 8.1 mph - N/A   Light Drizzle
8:31 AM 42.8 °F 38.0 °F 37.4 °F 81% 29.68 in 7.0 mi SSW 8.1 mph - N/A   Overcast
8:51 AM 42.8 °F 37.5 °F 37.4 °F 81% 29.68 in 7.0 mi South 9.2 mph - N/A   Overcast
9:11 AM 42.8 °F 37.0 °F 37.4 °F 81% 29.68 in 7.0 mi SSW 10.4 mph - N/A   Overcast
9:32 AM 44.6 °F 39.2 °F 39.2 °F 81% 29.67 in 5.0 mi SSW 10.4 mph - N/A   Haze
9:52 AM 44.6 °F 38.4 °F 41.0 °F 87% 29.66 in 7.0 mi SW 12.7 mph 16.1 mph N/A   Overcast
10:12 AM 44.6 °F 39.2 °F 41.0 °F 87% 29.66 in 7.0 mi SW 10.4 mph - N/A   Overcast
10:32 AM 46.4 °F 41.5 °F 41.0 °F 81% 29.66 in 7.0 mi WSW 10.4 mph - N/A   Overcast
10:52 AM 46.4 °F 41.5 °F 41.0 °F 81% 29.66 in 7.0 mi WSW 10.4 mph 17.3 mph N/A   Overcast
11:12 AM 46.4 °F 40.7 °F 41.0 °F 81% 29.66 in 7.0 mi WSW 12.7 mph 19.6 mph N/A   Overcast
11:32 AM 44.6 °F 37.8 °F 39.2 °F 81% 29.66 in 10.0 mi WSW 15.0 mph - N/A   Overcast
11:52 AM 46.4 °F 41.5 °F 41.0 °F 81% 29.66 in 10.0 mi WSW 10.4 mph - N/A   Overcast
12:12 PM 44.6 °F 38.1 °F 39.2 °F 81% 29.66 in 10.0 mi WSW 13.8 mph - N/A   Overcast
12:32 PM 46.4 °F 40.4 °F 39.2 °F 76% 29.66 in 10.0 mi West 13.8 mph 19.6 mph N/A   Overcast
12:52 PM 50.0 °F - 39.2 °F 66% 29.65 in 10.0 mi WSW 17.3 mph 21.9 mph N/A   Mostly Cloudy
1:12 PM 50.0 °F - 37.4 °F 62% 29.64 in 10.0 mi WSW 13.8 mph 21.9 mph N/A   Scattered Clouds
1:32 PM 51.8 °F - 37.4 °F 58% 29.63 in 10.0 mi WSW 11.5 mph 21.9 mph N/A   Scattered Clouds
1:52 PM 51.8 °F - 37.4 °F 58% 29.62 in 10.0 mi West 13.8 mph 20.7 mph N/A   Clear
2:13 PM 53.6 °F - 37.4 °F 54% 29.61 in 10.0 mi WSW 12.7 mph 19.6 mph N/A   Clear
2:33 PM 53.6 °F - 37.4 °F 54% 29.61 in 10.0 mi WSW 18.4 mph 24.2 mph N/A   Scattered Clouds
2:53 PM 55.4 °F - 35.6 °F 47% 29.60 in 10.0 mi West 17.3 mph 25.3 mph N/A   Clear
3:13 PM 55.4 °F - 37.4 °F 51% 29.60 in 10.0 mi WSW 20.7 mph 27.6 mph N/A   Scattered Clouds
3:33 PM 55.4 °F - 35.6 °F 47% 29.60 in 10.0 mi WSW 21.9 mph 26.5 mph N/A   Scattered Clouds
3:53 PM 55.4 °F - 37.4 °F 51% 29.59 in 10.0 mi West 19.6 mph 26.5 mph N/A   Scattered Clouds
4:13 PM 55.4 °F - 35.6 °F 47% 29.59 in 10.0 mi West 19.6 mph 24.2 mph N/A   Scattered Clouds
4:33 PM 53.6 °F - 35.6 °F 51% 29.59 in 10.0 mi West 20.7 mph 25.3 mph N/A   Scattered Clouds
4:54 PM 53.6 °F - 35.6 °F 51% 29.60 in 10.0 mi WSW 19.6 mph 27.6 mph N/A   Scattered Clouds
5:14 PM 51.8 °F - 35.6 °F 54% 29.60 in 10.0 mi WSW 23.0 mph 29.9 mph N/A   Scattered Clouds
5:34 PM 50.0 °F - 35.6 °F 58% 29.61 in 10.0 mi West 21.9 mph 29.9 mph N/A   Mostly Cloudy
5:54 PM 48.2 °F - 37.4 °F 66% 29.61 in 10.0 mi West 17.3 mph 24.2 mph N/A   Overcast
6:14 PM 46.4 °F 39.0 °F 37.4 °F 71% 29.62 in 10.0 mi West 19.6 mph 26.5 mph N/A   Overcast
6:34 PM 46.4 °F 39.0 °F 35.6 °F 66% 29.63 in 7.0 mi West 19.6 mph 25.3 mph N/A   Overcast
6:54 PM 44.6 °F 36.4 °F 35.6 °F 71% 29.64 in 7.0 mi West 20.7 mph 25.3 mph N/A   Overcast
7:15 PM 44.6 °F 38.1 °F 35.6 °F 71% 29.64 in 7.0 mi West 13.8 mph 17.3 mph N/A   Mostly Cloudy
7:35 PM 44.6 °F 38.1 °F 35.6 °F 71% 29.64 in 7.0 mi West 13.8 mph 24.2 mph N/A   Scattered Clouds
7:55 PM 42.8 °F 35.8 °F 35.6 °F 76% 29.64 in 7.0 mi West 13.8 mph 18.4 mph N/A   Scattered Clouds
8:15 PM 42.8 °F 38.6 °F 35.6 °F 76% 29.64 in 7.0 mi WSW 6.9 mph - N/A   Scattered Clouds
8:35 PM 42.8 °F 38.6 °F 35.6 °F 76% 29.64 in 7.0 mi WSW 6.9 mph - N/A   Mostly Cloudy
8:55 PM 42.8 °F 38.0 °F 33.8 °F 70% 29.64 in 10.0 mi WSW 8.1 mph - N/A   Scattered Clouds
9:15 PM 41.0 °F 35.2 °F 33.8 °F 76% 29.64 in 10.0 mi WSW 9.2 mph - N/A   Scattered Clouds
9:35 PM 42.8 °F 38.0 °F 33.8 °F 70% 29.65 in 10.0 mi WSW 8.1 mph - N/A   Mostly Cloudy
9:55 PM 42.8 °F 38.0 °F 33.8 °F 70% 29.66 in 10.0 mi West 8.1 mph - N/A   Overcast
10:15 PM 42.8 °F 37.0 °F 33.8 °F 70% 29.66 in 10.0 mi West 10.4 mph - N/A   Overcast
10:35 PM 42.8 °F 34.8 °F 32.0 °F 66% 29.66 in 10.0 mi West 17.3 mph 21.9 mph N/A   Overcast
10:55 PM 42.8 °F 34.8 °F 32.0 °F 66% 29.66 in 10.0 mi West 17.3 mph 24.2 mph N/A   Overcast
11:16 PM 41.0 °F 30.5 °F 32.0 °F 70% 29.67 in 10.0 mi NW 26.5 mph 34.5 mph N/A   Overcast
11:31 PM 35.6 °F 24.5 °F 32.0 °F 87% 29.69 in 5.0 mi NW 20.7 mph 31.1 mph N/A Snow Light Snow
11:51 PM 35.6 °F 26.2 °F 32.0 °F 87% 29.70 in 10.0 mi NW 15.0 mph 21.9 mph N/A Snow Light Snow